sensor_id;sensor_type;location;lat;lon;timestamp;P1;durP1;ratioP1;P2;durP2;ratioP2
58238;SDS011;44037;55.638;37.356;2023-09-19T00:00:17;31.10;;;16.90;;
58238;SDS011;44037;55.638;37.356;2023-09-19T00:02:46;32.78;;;16.73;;
58238;SDS011;44037;55.638;37.356;2023-09-19T00:05:18;29.48;;;19.02;;
58238;SDS011;44037;55.638;37.356;2023-09-19T00:07:49;33.40;;;19.92;;
58238;SDS011;44037;55.638;37.356;2023-09-19T00:10:19;37.28;;;20.38;;
58238;SDS011;44037;55.638;37.356;2023-09-19T00:12:47;26.05;;;17.42;;
58238;SDS011;44037;55.638;37.356;2023-09-19T00:15:15;32.90;;;18.63;;
58238;SDS011;44037;55.638;37.356;2023-09-19T00:17:43;32.45;;;18.88;;
58238;SDS011;44037;55.638;37.356;2023-09-19T00:20:10;31.40;;;17.08;;
58238;SDS011;44037;55.638;37.356;2023-09-19T00:22:39;32.75;;;17.98;;
58238;SDS011;44037;55.638;37.356;2023-09-19T00:25:08;31.27;;;17.95;;
58238;SDS011;44037;55.638;37.356;2023-09-19T00:27:37;35.10;;;17.42;;
58238;SDS011;44037;55.638;37.356;2023-09-19T00:30:08;29.02;;;16.98;;
58238;SDS011;44037;55.638;37.356;2023-09-19T00:32:42;25.35;;;16.52;;
58238;SDS011;44037;55.638;37.356;2023-09-19T00:35:09;26.67;;;17.20;;
58238;SDS011;44037;55.638;37.356;2023-09-19T00:37:37;31.35;;;17.75;;
58238;SDS011;44037;55.638;37.356;2023-09-19T00:40:05;28.50;;;17.05;;
58238;SDS011;44037;55.638;37.356;2023-09-19T00:42:35;34.00;;;16.77;;
58238;SDS011;44037;55.638;37.356;2023-09-19T00:45:03;27.48;;;16.05;;
58238;SDS011;44037;55.638;37.356;2023-09-19T00:47:32;25.90;;;16.58;;
58238;SDS011;44037;55.638;37.356;2023-09-19T00:50:00;28.63;;;16.70;;
58238;SDS011;44037;55.638;37.356;2023-09-19T00:52:29;33.17;;;18.38;;
58238;SDS011;44037;55.638;37.356;2023-09-19T00:54:57;28.05;;;17.08;;
58238;SDS011;44037;55.638;37.356;2023-09-19T00:57:25;30.55;;;16.40;;
58238;SDS011;44037;55.638;37.356;2023-09-19T00:59:53;31.00;;;18.25;;
58238;SDS011;44037;55.638;37.356;2023-09-19T01:02:21;31.48;;;17.98;;
58238;SDS011;44037;55.638;37.356;2023-09-19T01:04:48;26.92;;;17.15;;
58238;SDS011;44037;55.638;37.356;2023-09-19T01:07:16;31.98;;;18.40;;
58238;SDS011;44037;55.638;37.356;2023-09-19T01:09:44;28.20;;;16.98;;
58238;SDS011;44037;55.638;37.356;2023-09-19T01:12:11;28.60;;;16.30;;
58238;SDS011;44037;55.638;37.356;2023-09-19T01:14:50;28.70;;;17.08;;
58238;SDS011;44037;55.638;37.356;2023-09-19T01:17:25;24.05;;;15.95;;
58238;SDS011;44037;55.638;37.356;2023-09-19T01:22:56;33.25;;;18.27;;
58238;SDS011;44037;55.638;37.356;2023-09-19T01:25:44;28.52;;;17.70;;
58238;SDS011;44037;55.638;37.356;2023-09-19T01:28:31;29.27;;;17.52;;
58238;SDS011;44037;55.638;37.356;2023-09-19T01:31:06;29.35;;;18.17;;
58238;SDS011;44037;55.638;37.356;2023-09-19T01:36:25;26.27;;;16.98;;
58238;SDS011;44037;55.638;37.356;2023-09-19T01:38:54;26.25;;;17.67;;
58238;SDS011;44037;55.638;37.356;2023-09-19T01:41:26;28.00;;;17.17;;
58238;SDS011;44037;55.638;37.356;2023-09-19T01:44:02;34.05;;;18.40;;
58238;SDS011;44037;55.638;37.356;2023-09-19T01:46:35;34.03;;;18.35;;
58238;SDS011;44037;55.638;37.356;2023-09-19T01:49:09;34.13;;;17.15;;
58238;SDS011;44037;55.638;37.356;2023-09-19T01:51:48;35.03;;;18.65;;
58238;SDS011;44037;55.638;37.356;2023-09-19T01:54:24;26.73;;;17.85;;
58238;SDS011;44037;55.638;37.356;2023-09-19T01:56:57;30.25;;;18.52;;
58238;SDS011;44037;55.638;37.356;2023-09-19T01:59:31;29.88;;;17.13;;
58238;SDS011;44037;55.638;37.356;2023-09-19T02:02:07;32.63;;;16.77;;
58238;SDS011;44037;55.638;37.356;2023-09-19T02:04:35;39.28;;;19.88;;
58238;SDS011;44037;55.638;37.356;2023-09-19T02:07:03;32.88;;;19.95;;
58238;SDS011;44037;55.638;37.356;2023-09-19T02:09:33;32.88;;;18.33;;
58238;SDS011;44037;55.638;37.356;2023-09-19T02:12:01;35.40;;;20.67;;
58238;SDS011;44037;55.638;37.356;2023-09-19T02:14:29;40.90;;;22.25;;
58238;SDS011;44037;55.638;37.356;2023-09-19T02:16:57;40.03;;;22.35;;
58238;SDS011;44037;55.638;37.356;2023-09-19T02:19:26;41.83;;;24.92;;
58238;SDS011;44037;55.638;37.356;2023-09-19T02:21:55;41.42;;;24.75;;
58238;SDS011;44037;55.638;37.356;2023-09-19T02:24:23;45.85;;;24.67;;
58238;SDS011;44037;55.638;37.356;2023-09-19T02:26:52;51.08;;;26.13;;
58238;SDS011;44037;55.638;37.356;2023-09-19T02:29:20;57.65;;;30.95;;
58238;SDS011;44037;55.638;37.356;2023-09-19T02:31:47;66.80;;;32.38;;
58238;SDS011;44037;55.638;37.356;2023-09-19T02:34:14;73.68;;;32.67;;
58238;SDS011;44037;55.638;37.356;2023-09-19T02:36:43;72.90;;;35.60;;
58238;SDS011;44037;55.638;37.356;2023-09-19T02:39:11;74.85;;;37.15;;
58238;SDS011;44037;55.638;37.356;2023-09-19T02:41:38;75.25;;;37.83;;
58238;SDS011;44037;55.638;37.356;2023-09-19T02:44:06;70.00;;;34.70;;
58238;SDS011;44037;55.638;37.356;2023-09-19T02:46:34;71.13;;;34.78;;
58238;SDS011;44037;55.638;37.356;2023-09-19T02:49:02;84.88;;;36.97;;
58238;SDS011;44037;55.638;37.356;2023-09-19T02:51:30;77.18;;;36.97;;
58238;SDS011;44037;55.638;37.356;2023-09-19T02:53:59;74.55;;;35.25;;
58238;SDS011;44037;55.638;37.356;2023-09-19T02:56:28;79.75;;;37.53;;
58238;SDS011;44037;55.638;37.356;2023-09-19T02:58:56;69.80;;;33.80;;
58238;SDS011;44037;55.638;37.356;2023-09-19T03:01:23;75.60;;;35.13;;
58238;SDS011;44037;55.638;37.356;2023-09-19T03:03:50;71.10;;;34.28;;
58238;SDS011;44037;55.638;37.356;2023-09-19T03:06:17;68.82;;;33.33;;
58238;SDS011;44037;55.638;37.356;2023-09-19T03:08:45;78.75;;;35.70;;
58238;SDS011;44037;55.638;37.356;2023-09-19T03:11:15;71.07;;;32.08;;
58238;SDS011;44037;55.638;37.356;2023-09-19T03:13:50;70.70;;;35.42;;
58238;SDS011;44037;55.638;37.356;2023-09-19T03:16:18;75.50;;;34.92;;
58238;SDS011;44037;55.638;37.356;2023-09-19T03:18:47;69.75;;;32.58;;
58238;SDS011;44037;55.638;37.356;2023-09-19T03:21:15;65.72;;;34.15;;
58238;SDS011;44037;55.638;37.356;2023-09-19T03:23:42;68.90;;;32.40;;
58238;SDS011;44037;55.638;37.356;2023-09-19T03:26:10;63.88;;;30.23;;
58238;SDS011;44037;55.638;37.356;2023-09-19T03:28:41;69.70;;;35.33;;
58238;SDS011;44037;55.638;37.356;2023-09-19T03:31:08;68.63;;;32.42;;
58238;SDS011;44037;55.638;37.356;2023-09-19T03:33:36;62.97;;;31.38;;
58238;SDS011;44037;55.638;37.356;2023-09-19T03:36:03;60.78;;;31.70;;
58238;SDS011;44037;55.638;37.356;2023-09-19T03:38:31;66.05;;;30.42;;
58238;SDS011;44037;55.638;37.356;2023-09-19T03:40:59;52.95;;;29.15;;
58238;SDS011;44037;55.638;37.356;2023-09-19T03:43:26;52.08;;;28.42;;
58238;SDS011;44037;55.638;37.356;2023-09-19T03:45:55;57.38;;;31.33;;
58238;SDS011;44037;55.638;37.356;2023-09-19T03:48:22;55.85;;;28.58;;
58238;SDS011;44037;55.638;37.356;2023-09-19T03:50:49;74.88;;;39.17;;
58238;SDS011;44037;55.638;37.356;2023-09-19T03:53:17;47.83;;;27.33;;
58238;SDS011;44037;55.638;37.356;2023-09-19T03:55:44;50.92;;;27.20;;
58238;SDS011;44037;55.638;37.356;2023-09-19T03:58:12;48.55;;;26.95;;
58238;SDS011;44037;55.638;37.356;2023-09-19T04:00:39;54.28;;;26.90;;
58238;SDS011;44037;55.638;37.356;2023-09-19T04:03:08;44.72;;;26.25;;
58238;SDS011;44037;55.638;37.356;2023-09-19T04:05:44;54.63;;;26.70;;
58238;SDS011;44037;55.638;37.356;2023-09-19T04:08:11;53.20;;;28.25;;
58238;SDS011;44037;55.638;37.356;2023-09-19T04:10:38;55.25;;;28.88;;
58238;SDS011;44037;55.638;37.356;2023-09-19T04:13:05;55.92;;;28.75;;
58238;SDS011;44037;55.638;37.356;2023-09-19T04:15:33;53.08;;;25.17;;
58238;SDS011;44037;55.638;37.356;2023-09-19T04:18:00;45.22;;;24.73;;
58238;SDS011;44037;55.638;37.356;2023-09-19T04:20:30;44.25;;;25.88;;
58238;SDS011;44037;55.638;37.356;2023-09-19T04:22:57;49.83;;;23.50;;
58238;SDS011;44037;55.638;37.356;2023-09-19T04:25:25;46.22;;;24.50;;
58238;SDS011;44037;55.638;37.356;2023-09-19T04:27:53;49.58;;;27.08;;
58238;SDS011;44037;55.638;37.356;2023-09-19T04:30:20;49.00;;;26.05;;
58238;SDS011;44037;55.638;37.356;2023-09-19T04:32:47;50.65;;;27.08;;
58238;SDS011;44037;55.638;37.356;2023-09-19T04:35:16;50.53;;;28.70;;
58238;SDS011;44037;55.638;37.356;2023-09-19T04:37:44;45.03;;;26.05;;
58238;SDS011;44037;55.638;37.356;2023-09-19T04:40:12;43.17;;;23.52;;
58238;SDS011;44037;55.638;37.356;2023-09-19T04:42:42;46.95;;;25.88;;
58238;SDS011;44037;55.638;37.356;2023-09-19T04:45:10;43.15;;;24.50;;
58238;SDS011;44037;55.638;37.356;2023-09-19T04:47:37;39.65;;;23.30;;
58238;SDS011;44037;55.638;37.356;2023-09-19T04:50:06;47.13;;;24.40;;
58238;SDS011;44037;55.638;37.356;2023-09-19T04:52:38;46.85;;;25.70;;
58238;SDS011;44037;55.638;37.356;2023-09-19T04:55:09;43.13;;;24.50;;
58238;SDS011;44037;55.638;37.356;2023-09-19T04:57:42;39.20;;;22.30;;
58238;SDS011;44037;55.638;37.356;2023-09-19T05:00:11;36.58;;;22.45;;
58238;SDS011;44037;55.638;37.356;2023-09-19T05:02:40;37.17;;;23.40;;
58238;SDS011;44037;55.638;37.356;2023-09-19T05:05:08;36.15;;;21.98;;
58238;SDS011;44037;55.638;37.356;2023-09-19T05:07:36;33.67;;;20.10;;
58238;SDS011;44037;55.638;37.356;2023-09-19T05:10:06;34.92;;;20.85;;
58238;SDS011;44037;55.638;37.356;2023-09-19T05:12:35;35.75;;;20.52;;
58238;SDS011;44037;55.638;37.356;2023-09-19T05:15:02;31.45;;;18.63;;
58238;SDS011;44037;55.638;37.356;2023-09-19T05:17:30;34.47;;;21.08;;
58238;SDS011;44037;55.638;37.356;2023-09-19T05:19:58;36.47;;;20.75;;
58238;SDS011;44037;55.638;37.356;2023-09-19T05:22:26;35.00;;;20.77;;
58238;SDS011;44037;55.638;37.356;2023-09-19T05:24:54;35.83;;;22.13;;
58238;SDS011;44037;55.638;37.356;2023-09-19T05:27:21;30.17;;;18.85;;
58238;SDS011;44037;55.638;37.356;2023-09-19T05:29:49;28.52;;;18.60;;
58238;SDS011;44037;55.638;37.356;2023-09-19T05:32:18;34.25;;;21.00;;
58238;SDS011;44037;55.638;37.356;2023-09-19T05:34:46;28.70;;;18.25;;
58238;SDS011;44037;55.638;37.356;2023-09-19T05:37:13;29.13;;;19.20;;
58238;SDS011;44037;55.638;37.356;2023-09-19T05:39:41;31.65;;;19.00;;
58238;SDS011;44037;55.638;37.356;2023-09-19T05:42:09;28.67;;;18.38;;
58238;SDS011;44037;55.638;37.356;2023-09-19T05:44:36;34.55;;;18.77;;
58238;SDS011;44037;55.638;37.356;2023-09-19T05:47:04;34.88;;;22.70;;
58238;SDS011;44037;55.638;37.356;2023-09-19T05:49:34;27.52;;;17.85;;
58238;SDS011;44037;55.638;37.356;2023-09-19T05:52:04;32.90;;;19.38;;
58238;SDS011;44037;55.638;37.356;2023-09-19T05:54:31;29.88;;;19.40;;
58238;SDS011;44037;55.638;37.356;2023-09-19T05:57:00;26.75;;;17.70;;
58238;SDS011;44037;55.638;37.356;2023-09-19T05:59:28;29.58;;;19.35;;
58238;SDS011;44037;55.638;37.356;2023-09-19T06:01:55;30.83;;;19.30;;
58238;SDS011;44037;55.638;37.356;2023-09-19T06:04:23;32.13;;;19.75;;
58238;SDS011;44037;55.638;37.356;2023-09-19T06:06:51;33.47;;;20.60;;
58238;SDS011;44037;55.638;37.356;2023-09-19T06:09:18;36.28;;;20.38;;
58238;SDS011;44037;55.638;37.356;2023-09-19T06:11:45;28.25;;;18.80;;
58238;SDS011;44037;55.638;37.356;2023-09-19T06:14:12;28.02;;;17.85;;
58238;SDS011;44037;55.638;37.356;2023-09-19T06:16:39;39.67;;;23.13;;
58238;SDS011;44037;55.638;37.356;2023-09-19T06:19:07;34.25;;;19.73;;
58238;SDS011;44037;55.638;37.356;2023-09-19T06:21:36;39.35;;;22.83;;
58238;SDS011;44037;55.638;37.356;2023-09-19T06:24:04;40.13;;;23.38;;
58238;SDS011;44037;55.638;37.356;2023-09-19T06:26:31;29.92;;;19.45;;
58238;SDS011;44037;55.638;37.356;2023-09-19T06:28:59;34.95;;;20.92;;
58238;SDS011;44037;55.638;37.356;2023-09-19T06:31:26;31.52;;;20.48;;
58238;SDS011;44037;55.638;37.356;2023-09-19T06:33:53;32.85;;;22.02;;
58238;SDS011;44037;55.638;37.356;2023-09-19T06:36:20;39.45;;;27.48;;
58238;SDS011;44037;55.638;37.356;2023-09-19T06:38:49;32.65;;;21.88;;
58238;SDS011;44037;55.638;37.356;2023-09-19T06:41:17;31.10;;;22.10;;
58238;SDS011;44037;55.638;37.356;2023-09-19T06:43:44;34.38;;;21.20;;
58238;SDS011;44037;55.638;37.356;2023-09-19T06:46:11;28.13;;;19.90;;
58238;SDS011;44037;55.638;37.356;2023-09-19T06:48:39;31.73;;;20.13;;
58238;SDS011;44037;55.638;37.356;2023-09-19T06:51:06;32.80;;;21.70;;
58238;SDS011;44037;55.638;37.356;2023-09-19T06:53:35;34.45;;;21.80;;
58238;SDS011;44037;55.638;37.356;2023-09-19T06:56:03;29.05;;;20.50;;
58238;SDS011;44037;55.638;37.356;2023-09-19T06:58:31;32.47;;;22.30;;
58238;SDS011;44037;55.638;37.356;2023-09-19T07:00:58;33.50;;;22.40;;
58238;SDS011;44037;55.638;37.356;2023-09-19T07:03:25;35.33;;;22.67;;
58238;SDS011;44037;55.638;37.356;2023-09-19T07:05:54;39.85;;;28.35;;
58238;SDS011;44037;55.638;37.356;2023-09-19T07:08:21;52.92;;;34.90;;
58238;SDS011;44037;55.638;37.356;2023-09-19T07:10:48;37.30;;;24.48;;
58238;SDS011;44037;55.638;37.356;2023-09-19T07:13:20;35.88;;;23.83;;
58238;SDS011;44037;55.638;37.356;2023-09-19T07:15:47;34.85;;;22.02;;
58238;SDS011;44037;55.638;37.356;2023-09-19T07:18:15;39.53;;;25.83;;
58238;SDS011;44037;55.638;37.356;2023-09-19T07:20:43;32.75;;;24.23;;
58238;SDS011;44037;55.638;37.356;2023-09-19T07:23:14;33.17;;;21.77;;
58238;SDS011;44037;55.638;37.356;2023-09-19T07:25:41;36.13;;;24.65;;
58238;SDS011;44037;55.638;37.356;2023-09-19T07:28:08;33.38;;;22.00;;
58238;SDS011;44037;55.638;37.356;2023-09-19T07:30:37;36.53;;;24.65;;
58238;SDS011;44037;55.638;37.356;2023-09-19T07:33:05;32.88;;;22.10;;
58238;SDS011;44037;55.638;37.356;2023-09-19T07:35:33;33.13;;;22.58;;
58238;SDS011;44037;55.638;37.356;2023-09-19T07:38:00;32.30;;;23.33;;
58238;SDS011;44037;55.638;37.356;2023-09-19T07:40:27;34.83;;;25.23;;
58238;SDS011;44037;55.638;37.356;2023-09-19T07:42:55;33.25;;;23.83;;
58238;SDS011;44037;55.638;37.356;2023-09-19T07:45:26;32.10;;;21.85;;
58238;SDS011;44037;55.638;37.356;2023-09-19T07:47:56;33.47;;;22.15;;
58238;SDS011;44037;55.638;37.356;2023-09-19T07:50:23;34.40;;;22.33;;
58238;SDS011;44037;55.638;37.356;2023-09-19T07:52:51;29.00;;;20.85;;
58238;SDS011;44037;55.638;37.356;2023-09-19T07:55:22;31.25;;;20.70;;
58238;SDS011;44037;55.638;37.356;2023-09-19T07:57:51;32.85;;;22.60;;
58238;SDS011;44037;55.638;37.356;2023-09-19T08:00:18;34.80;;;21.13;;
58238;SDS011;44037;55.638;37.356;2023-09-19T08:02:46;28.25;;;19.60;;
58238;SDS011;44037;55.638;37.356;2023-09-19T08:05:15;29.88;;;19.30;;
58238;SDS011;44037;55.638;37.356;2023-09-19T08:07:42;27.73;;;20.35;;
58238;SDS011;44037;55.638;37.356;2023-09-19T08:10:13;33.20;;;20.25;;
58238;SDS011;44037;55.638;37.356;2023-09-19T08:12:42;27.60;;;19.73;;
58238;SDS011;44037;55.638;37.356;2023-09-19T08:15:12;27.40;;;20.25;;
58238;SDS011;44037;55.638;37.356;2023-09-19T08:17:40;30.42;;;19.80;;
58238;SDS011;44037;55.638;37.356;2023-09-19T08:20:07;28.92;;;20.10;;
58238;SDS011;44037;55.638;37.356;2023-09-19T08:22:46;35.95;;;22.95;;
58238;SDS011;44037;55.638;37.356;2023-09-19T08:25:14;28.58;;;20.10;;
58238;SDS011;44037;55.638;37.356;2023-09-19T08:27:45;26.83;;;18.77;;
58238;SDS011;44037;55.638;37.356;2023-09-19T08:30:15;28.95;;;19.83;;
58238;SDS011;44037;55.638;37.356;2023-09-19T08:32:43;26.95;;;19.23;;
58238;SDS011;44037;55.638;37.356;2023-09-19T08:35:11;30.27;;;18.92;;
58238;SDS011;44037;55.638;37.356;2023-09-19T08:37:39;32.15;;;18.48;;
58238;SDS011;44037;55.638;37.356;2023-09-19T08:40:08;28.90;;;17.90;;
58238;SDS011;44037;55.638;37.356;2023-09-19T08:42:48;24.35;;;18.98;;
58238;SDS011;44037;55.638;37.356;2023-09-19T08:45:16;24.20;;;17.92;;
58238;SDS011;44037;55.638;37.356;2023-09-19T08:47:45;27.33;;;18.40;;
58238;SDS011;44037;55.638;37.356;2023-09-19T08:50:18;26.15;;;17.08;;
58238;SDS011;44037;55.638;37.356;2023-09-19T08:52:47;26.50;;;18.60;;
58238;SDS011;44037;55.638;37.356;2023-09-19T08:55:22;24.52;;;17.55;;
58238;SDS011;44037;55.638;37.356;2023-09-19T08:57:55;27.75;;;18.20;;
58238;SDS011;44037;55.638;37.356;2023-09-19T09:00:27;26.10;;;18.70;;
58238;SDS011;44037;55.638;37.356;2023-09-19T09:02:55;28.35;;;18.33;;
58238;SDS011;44037;55.638;37.356;2023-09-19T09:05:23;30.48;;;18.17;;
58238;SDS011;44037;55.638;37.356;2023-09-19T09:07:51;29.83;;;18.75;;
58238;SDS011;44037;55.638;37.356;2023-09-19T09:10:21;23.77;;;18.13;;
58238;SDS011;44037;55.638;37.356;2023-09-19T09:12:49;29.92;;;19.27;;
58238;SDS011;44037;55.638;37.356;2023-09-19T09:15:18;23.02;;;16.65;;
58238;SDS011;44037;55.638;37.356;2023-09-19T09:17:47;25.60;;;17.73;;
58238;SDS011;44037;55.638;37.356;2023-09-19T09:20:15;26.10;;;19.80;;
58238;SDS011;44037;55.638;37.356;2023-09-19T09:22:50;28.20;;;18.70;;
58238;SDS011;44037;55.638;37.356;2023-09-19T09:25:18;35.95;;;21.30;;
58238;SDS011;44037;55.638;37.356;2023-09-19T09:27:59;28.02;;;18.80;;
58238;SDS011;44037;55.638;37.356;2023-09-19T09:30:37;49.15;;;31.17;;
58238;SDS011;44037;55.638;37.356;2023-09-19T09:33:10;32.10;;;20.40;;
58238;SDS011;44037;55.638;37.356;2023-09-19T09:38:17;29.88;;;16.50;;
58238;SDS011;44037;55.638;37.356;2023-09-19T09:40:48;25.80;;;17.85;;
58238;SDS011;44037;55.638;37.356;2023-09-19T09:43:27;22.95;;;16.05;;
58238;SDS011;44037;55.638;37.356;2023-09-19T09:46:10;30.58;;;17.55;;
58238;SDS011;44037;55.638;37.356;2023-09-19T09:48:57;28.83;;;18.17;;
58238;SDS011;44037;55.638;37.356;2023-09-19T09:51:43;26.38;;;16.88;;
58238;SDS011;44037;55.638;37.356;2023-09-19T09:54:15;28.42;;;16.80;;
58238;SDS011;44037;55.638;37.356;2023-09-19T09:56:54;23.33;;;15.80;;
58238;SDS011;44037;55.638;37.356;2023-09-19T09:59:47;22.83;;;15.25;;
58238;SDS011;44037;55.638;37.356;2023-09-19T10:02:17;30.95;;;19.10;;
58238;SDS011;44037;55.638;37.356;2023-09-19T10:04:49;34.95;;;21.05;;
58238;SDS011;44037;55.638;37.356;2023-09-19T10:07:39;22.70;;;15.90;;
58238;SDS011;44037;55.638;37.356;2023-09-19T10:10:11;26.38;;;17.13;;
58238;SDS011;44037;55.638;37.356;2023-09-19T10:12:43;26.33;;;16.83;;
58238;SDS011;44037;55.638;37.356;2023-09-19T10:15:15;24.15;;;16.65;;
58238;SDS011;44037;55.638;37.356;2023-09-19T10:17:45;20.70;;;15.30;;
58238;SDS011;44037;55.638;37.356;2023-09-19T10:20:14;27.00;;;16.70;;
58238;SDS011;44037;55.638;37.356;2023-09-19T10:23:04;23.30;;;16.35;;
58238;SDS011;44037;55.638;37.356;2023-09-19T10:25:37;26.35;;;17.02;;
58238;SDS011;44037;55.638;37.356;2023-09-19T10:28:05;22.27;;;15.80;;
58238;SDS011;44037;55.638;37.356;2023-09-19T10:30:38;24.58;;;16.15;;
58238;SDS011;44037;55.638;37.356;2023-09-19T10:33:10;23.30;;;16.17;;
58238;SDS011;44037;55.638;37.356;2023-09-19T10:35:38;25.42;;;15.07;;
58238;SDS011;44037;55.638;37.356;2023-09-19T10:38:09;26.83;;;16.00;;
58238;SDS011;44037;55.638;37.356;2023-09-19T10:40:37;24.65;;;14.48;;
58238;SDS011;44037;55.638;37.356;2023-09-19T10:43:11;24.80;;;15.32;;
58238;SDS011;44037;55.638;37.356;2023-09-19T10:45:41;24.80;;;16.17;;
58238;SDS011;44037;55.638;37.356;2023-09-19T10:48:12;23.23;;;14.48;;
58238;SDS011;44037;55.638;37.356;2023-09-19T10:50:43;23.80;;;14.10;;
58238;SDS011;44037;55.638;37.356;2023-09-19T10:53:14;20.33;;;12.63;;
58238;SDS011;44037;55.638;37.356;2023-09-19T10:55:48;18.05;;;12.50;;
58238;SDS011;44037;55.638;37.356;2023-09-19T10:58:26;28.13;;;19.80;;
58238;SDS011;44037;55.638;37.356;2023-09-19T11:00:56;21.13;;;13.57;;
58238;SDS011;44037;55.638;37.356;2023-09-19T11:03:31;20.63;;;12.52;;
58238;SDS011;44037;55.638;37.356;2023-09-19T11:06:02;19.45;;;13.93;;
58238;SDS011;44037;55.638;37.356;2023-09-19T11:08:30;17.42;;;12.05;;
58238;SDS011;44037;55.638;37.356;2023-09-19T11:10:58;22.45;;;14.85;;
58238;SDS011;44037;55.638;37.356;2023-09-19T11:13:30;22.30;;;13.52;;
58238;SDS011;44037;55.638;37.356;2023-09-19T11:16:04;18.98;;;11.75;;
58238;SDS011;44037;55.638;37.356;2023-09-19T11:24:32;20.60;;;14.13;;
58238;SDS011;44037;55.638;37.356;2023-09-19T11:27:10;17.95;;;12.15;;
58238;SDS011;44037;55.638;37.356;2023-09-19T11:29:39;26.60;;;15.63;;
58238;SDS011;44037;55.638;37.356;2023-09-19T11:32:08;20.77;;;12.57;;
58238;SDS011;44037;55.638;37.356;2023-09-19T11:34:45;18.90;;;12.80;;
58238;SDS011;44037;55.638;37.356;2023-09-19T11:40:36;18.73;;;11.52;;
58238;SDS011;44037;55.638;37.356;2023-09-19T11:46:01;19.45;;;12.27;;
58238;SDS011;44037;55.638;37.356;2023-09-19T11:48:33;19.83;;;10.88;;
58238;SDS011;44037;55.638;37.356;2023-09-19T11:51:16;15.13;;;10.10;;
58238;SDS011;44037;55.638;37.356;2023-09-19T11:53:53;17.42;;;11.68;;
58238;SDS011;44037;55.638;37.356;2023-09-19T11:56:21;12.38;;;8.82;;
58238;SDS011;44037;55.638;37.356;2023-09-19T11:58:50;13.30;;;8.70;;
58238;SDS011;44037;55.638;37.356;2023-09-19T12:01:24;17.60;;;10.60;;
58238;SDS011;44037;55.638;37.356;2023-09-19T12:03:56;13.20;;;9.85;;
58238;SDS011;44037;55.638;37.356;2023-09-19T12:06:24;12.07;;;7.65;;
58238;SDS011;44037;55.638;37.356;2023-09-19T12:08:53;12.35;;;7.72;;
58238;SDS011;44037;55.638;37.356;2023-09-19T12:11:21;12.07;;;8.07;;
58238;SDS011;44037;55.638;37.356;2023-09-19T12:13:49;9.73;;;7.03;;
58238;SDS011;44037;55.638;37.356;2023-09-19T12:16:18;9.32;;;6.90;;
58238;SDS011;44037;55.638;37.356;2023-09-19T12:18:48;10.05;;;6.68;;
58238;SDS011;44037;55.638;37.356;2023-09-19T12:21:27;8.27;;;6.50;;
58238;SDS011;44037;55.638;37.356;2023-09-19T12:24:03;9.70;;;7.18;;
58238;SDS011;44037;55.638;37.356;2023-09-19T12:26:38;10.10;;;7.43;;
58238;SDS011;44037;55.638;37.356;2023-09-19T12:29:11;11.18;;;7.50;;
58238;SDS011;44037;55.638;37.356;2023-09-19T12:31:50;10.52;;;7.47;;
58238;SDS011;44037;55.638;37.356;2023-09-19T12:34:20;8.95;;;6.88;;
58238;SDS011;44037;55.638;37.356;2023-09-19T12:37:01;9.85;;;7.60;;
58238;SDS011;44037;55.638;37.356;2023-09-19T12:39:37;8.63;;;6.93;;
58238;SDS011;44037;55.638;37.356;2023-09-19T12:42:07;10.95;;;7.10;;
58238;SDS011;44037;55.638;37.356;2023-09-19T12:44:36;12.20;;;8.38;;
58238;SDS011;44037;55.638;37.356;2023-09-19T12:47:10;10.63;;;7.20;;
58238;SDS011;44037;55.638;37.356;2023-09-19T12:52:40;11.57;;;8.13;;
58238;SDS011;44037;55.638;37.356;2023-09-19T12:55:18;12.90;;;8.90;;
58238;SDS011;44037;55.638;37.356;2023-09-19T12:58:07;10.63;;;7.00;;
58238;SDS011;44037;55.638;37.356;2023-09-19T13:00:36;9.52;;;6.78;;
58238;SDS011;44037;55.638;37.356;2023-09-19T13:05:54;9.23;;;6.88;;
58238;SDS011;44037;55.638;37.356;2023-09-19T13:08:25;9.23;;;6.30;;
58238;SDS011;44037;55.638;37.356;2023-09-19T13:11:04;9.98;;;7.38;;
58238;SDS011;44037;55.638;37.356;2023-09-19T13:13:42;8.40;;;6.45;;
58238;SDS011;44037;55.638;37.356;2023-09-19T13:16:14;7.45;;;6.47;;
58238;SDS011;44037;55.638;37.356;2023-09-19T13:18:46;7.68;;;6.40;;
58238;SDS011;44037;55.638;37.356;2023-09-19T13:21:16;7.20;;;6.13;;
58238;SDS011;44037;55.638;37.356;2023-09-19T13:23:52;12.10;;;7.13;;
58238;SDS011;44037;55.638;37.356;2023-09-19T13:26:24;14.20;;;9.05;;
58238;SDS011;44037;55.638;37.356;2023-09-19T13:28:53;11.02;;;7.13;;
58238;SDS011;44037;55.638;37.356;2023-09-19T13:31:20;12.55;;;6.78;;
58238;SDS011;44037;55.638;37.356;2023-09-19T13:33:49;13.13;;;7.00;;
58238;SDS011;44037;55.638;37.356;2023-09-19T13:36:18;21.70;;;14.10;;
58238;SDS011;44037;55.638;37.356;2023-09-19T13:38:45;14.48;;;10.57;;
58238;SDS011;44037;55.638;37.356;2023-09-19T13:41:16;13.15;;;8.88;;
58238;SDS011;44037;55.638;37.356;2023-09-19T13:43:43;10.43;;;8.45;;
58238;SDS011;44037;55.638;37.356;2023-09-19T13:46:13;11.00;;;8.13;;
58238;SDS011;44037;55.638;37.356;2023-09-19T13:48:41;11.63;;;7.97;;
58238;SDS011;44037;55.638;37.356;2023-09-19T13:51:08;11.23;;;8.32;;
58238;SDS011;44037;55.638;37.356;2023-09-19T13:53:36;9.35;;;6.78;;
58238;SDS011;44037;55.638;37.356;2023-09-19T13:56:03;9.35;;;7.28;;
58238;SDS011;44037;55.638;37.356;2023-09-19T13:58:31;9.93;;;7.65;;
58238;SDS011;44037;55.638;37.356;2023-09-19T14:00:58;11.75;;;7.60;;
58238;SDS011;44037;55.638;37.356;2023-09-19T14:03:26;10.85;;;7.18;;
58238;SDS011;44037;55.638;37.356;2023-09-19T14:05:53;12.27;;;7.88;;
58238;SDS011;44037;55.638;37.356;2023-09-19T14:08:20;10.48;;;6.68;;
58238;SDS011;44037;55.638;37.356;2023-09-19T14:10:49;11.27;;;7.90;;
58238;SDS011;44037;55.638;37.356;2023-09-19T14:13:16;10.38;;;7.18;;
58238;SDS011;44037;55.638;37.356;2023-09-19T14:15:44;12.30;;;7.75;;
58238;SDS011;44037;55.638;37.356;2023-09-19T14:18:11;10.55;;;7.63;;
58238;SDS011;44037;55.638;37.356;2023-09-19T14:20:38;10.20;;;7.22;;
58238;SDS011;44037;55.638;37.356;2023-09-19T14:23:07;13.02;;;7.38;;
58238;SDS011;44037;55.638;37.356;2023-09-19T14:25:34;11.93;;;6.90;;
58238;SDS011;44037;55.638;37.356;2023-09-19T14:28:02;9.30;;;6.72;;
58238;SDS011;44037;55.638;37.356;2023-09-19T14:30:29;9.73;;;7.00;;
58238;SDS011;44037;55.638;37.356;2023-09-19T14:33:00;10.20;;;6.90;;
58238;SDS011;44037;55.638;37.356;2023-09-19T14:35:27;9.65;;;6.70;;
58238;SDS011;44037;55.638;37.356;2023-09-19T14:37:54;13.02;;;7.15;;
58238;SDS011;44037;55.638;37.356;2023-09-19T14:40:21;12.23;;;6.93;;
58238;SDS011;44037;55.638;37.356;2023-09-19T14:42:49;10.38;;;6.18;;
58238;SDS011;44037;55.638;37.356;2023-09-19T14:45:16;13.13;;;7.30;;
58238;SDS011;44037;55.638;37.356;2023-09-19T14:47:45;8.57;;;6.75;;
58238;SDS011;44037;55.638;37.356;2023-09-19T14:50:14;11.10;;;7.50;;
58238;SDS011;44037;55.638;37.356;2023-09-19T14:52:41;21.13;;;15.75;;